Time;durP1;ratioP1;P1;durP2;ratioP2;P2;SDS_P1;SDS_P2;PMS_P1;PMS_P2;Temp;Humidity;BMP_temperature;BMP_pressure;BME280_temperature;BME280_humidity;BME280_pressure;Samples;Min_cycle;Max_cycle;Signal;HPM_P1;HPM_P2
2022/12/04 00:01:22;;;;;;;62.40;17.10;;;;;;;-1.13;100.00;95053.41;5008723;28;20165;-72
2022/12/04 00:03:53;;;;;;;59.70;16.42;;;;;;;-1.18;100.00;95050.63;4997782;28;20058;-72
2022/12/04 00:06:19;;;;;;;55.13;15.35;;;;;;;-1.10;100.00;95052.97;4997817;28;20047;-72
2022/12/04 00:08:46;;;;;;;58.80;14.70;;;;;;;-1.18;100.00;95045.47;5010101;28;20042;-72
2022/12/04 00:11:14;;;;;;;62.42;16.42;;;;;;;-1.22;100.00;95052.84;5009292;28;20070;-72
2022/12/04 00:13:41;;;;;;;58.47;16.40;;;;;;;-1.24;100.00;95047.88;4997568;28;20041;-72
2022/12/04 00:16:09;;;;;;;70.95;17.73;;;;;;;-1.22;100.00;95051.06;4997839;28;20097;-72
2022/12/04 00:18:35;;;;;;;61.60;16.45;;;;;;;-1.27;100.00;95055.25;4999477;28;20078;-72
2022/12/04 00:21:05;;;;;;;63.97;15.98;;;;;;;-1.21;100.00;95046.66;4994606;28;20038;-72
2022/12/04 00:23:31;;;;;;;62.67;15.82;;;;;;;-1.24;100.00;95040.13;4994392;28;20042;-72
2022/12/04 00:26:06;;;;;;;58.05;16.20;;;;;;;-1.20;100.00;95052.63;5005383;28;20072;-72
2022/12/04 00:28:33;;;;;;;65.78;16.35;;;;;;;-1.24;100.00;95047.88;5007377;28;20508;-72
2022/12/04 00:30:58;;;;;;;58.50;16.63;;;;;;;-1.23;100.00;95039.13;4993736;28;20038;-72
2022/12/04 00:33:24;;;;;;;64.60;16.23;;;;;;;-1.22;100.00;95042.53;5005099;28;20054;-72
2022/12/04 00:36:01;;;;;;;53.50;14.75;;;;;;;-1.20;100.00;95042.31;5004175;28;20038;-72
2022/12/04 00:38:27;;;;;;;52.58;14.95;;;;;;;-1.17;100.00;95049.66;4995757;28;20080;-72
2022/12/04 00:40:52;;;;;;;58.67;15.15;;;;;;;-1.25;100.00;95056.63;4992213;28;20046;-72
2022/12/04 00:43:18;;;;;;;58.88;15.80;;;;;;;-1.20;100.00;95047.47;5008143;28;20048;-72
2022/12/04 00:45:44;;;;;;;52.97;14.40;;;;;;;-1.17;100.00;95059.97;4991387;28;20046;-72
2022/12/04 00:48:10;;;;;;;57.65;15.40;;;;;;;-1.18;100.00;95056.56;5002440;28;20041;-72
2022/12/04 00:50:36;;;;;;;52.38;15.20;;;;;;;-1.11;100.00;95051.38;5007753;28;20046;-72
2022/12/04 00:53:02;;;;;;;57.08;16.40;;;;;;;-1.19;100.00;95059.38;5005139;28;20091;-71
2022/12/04 00:55:27;;;;;;;56.92;15.35;;;;;;;-1.13;100.00;95055.97;5009591;28;20054;-72
2022/12/04 00:57:53;;;;;;;53.42;15.30;;;;;;;-1.22;100.00;95045.88;5000243;28;20061;-72
2022/12/04 01:00:18;;;;;;;59.60;15.43;;;;;;;-1.25;100.00;95046.31;5000462;28;20050;-72
2022/12/04 01:02:44;;;;;;;64.72;16.95;;;;;;;-1.23;100.00;95043.50;4995524;28;20053;-72
2022/12/04 01:05:11;;;;;;;53.30;16.77;;;;;;;-1.22;100.00;95048.47;4994360;28;20452;-72
2022/12/04 01:07:36;;;;;;;56.88;15.40;;;;;;;-1.11;100.00;95036.69;4990595;28;20042;-72
2022/12/04 01:10:04;;;;;;;52.42;14.95;;;;;;;-1.13;100.00;95043.84;5005061;28;20734;-72
2022/12/04 01:12:30;;;;;;;58.08;16.13;;;;;;;-1.16;100.00;95043.50;5008052;28;20046;-72
2022/12/04 01:14:56;;;;;;;60.75;16.75;;;;;;;-1.13;100.00;95037.91;4990173;28;20101;-72
2022/12/04 01:17:21;;;;;;;49.40;14.50;;;;;;;-1.24;100.00;95052.25;4996462;28;20049;-72
2022/12/04 01:19:47;;;;;;;62.15;16.17;;;;;;;-1.17;100.00;95063.34;4999964;28;20042;-72
2022/12/04 01:22:13;;;;;;;52.88;14.45;;;;;;;-1.14;100.00;95059.56;5007645;28;20111;-72
2022/12/04 01:24:38;;;;;;;58.35;15.40;;;;;;;-1.26;100.00;95060.19;4997765;28;20500;-72
2022/12/04 01:27:04;;;;;;;59.08;15.30;;;;;;;-1.15;100.00;95061.34;4997344;28;20461;-72
2022/12/04 01:29:29;;;;;;;50.15;15.18;;;;;;;-1.22;100.00;95056.22;5005053;28;20060;-72
2022/12/04 01:31:55;;;;;;;59.45;15.57;;;;;;;-1.22;100.00;95066.53;5009686;28;20419;-72
2022/12/04 01:34:21;;;;;;;47.40;13.85;;;;;;;-1.15;100.00;95065.72;5002307;28;20062;-72
2022/12/04 01:36:47;;;;;;;56.90;16.67;;;;;;;-1.14;100.00;95067.31;4996334;28;20050;-72
2022/12/04 01:39:12;;;;;;;49.90;14.82;;;;;;;-1.15;100.00;95061.34;5006547;28;20109;-72
2022/12/04 01:41:38;;;;;;;53.65;14.80;;;;;;;-1.14;100.00;95062.13;5002478;28;20189;-72
2022/12/04 01:44:15;;;;;;;56.67;15.10;;;;;;;-1.18;100.00;95060.97;4999362;28;20103;-72
2022/12/04 01:46:43;;;;;;;59.85;15.63;;;;;;;-1.16;100.00;95053.81;5011639;28;20046;-72
2022/12/04 01:49:14;;;;;;;58.50;14.02;;;;;;;-1.22;100.00;95048.47;5001528;28;20039;-72
2022/12/04 01:51:45;;;;;;;57.28;15.50;;;;;;;-1.12;100.00;95049.78;5005646;28;20112;-72
2022/12/04 01:54:27;;;;;;;55.97;17.83;;;;;;;-1.13;100.00;95037.91;5001998;28;20117;-72
2022/12/04 01:57:13;;;;;;;50.55;13.45;;;;;;;-1.17;100.00;95031.56;5008485;28;20139;-72
2022/12/04 01:59:51;;;;;;;57.10;16.10;;;;;;;-1.26;100.00;95018.88;5008493;28;20042;-72
2022/12/04 02:02:22;;;;;;;52.03;14.80;;;;;;;-1.29;100.00;95019.31;5007091;28;20045;-72
2022/12/04 02:04:47;;;;;;;51.33;14.85;;;;;;;-1.22;100.00;95022.66;4997270;28;20510;-72
2022/12/04 02:07:13;;;;;;;59.53;15.05;;;;;;;-1.26;100.00;95029.22;4999285;28;20047;-72
2022/12/04 02:09:40;;;;;;;48.00;14.02;;;;;;;-1.32;100.00;95035.22;5007751;28;20045;-72
2022/12/04 02:12:31;;;;;;;43.25;14.68;;;;;;;-1.26;100.00;95055.03;5003935;28;20092;-72
2022/12/04 02:15:05;;;;;;;46.30;13.27;;;;;;;-1.29;100.00;95050.28;4999339;28;20042;-72
2022/12/04 02:17:50;;;;;;;43.97;14.25;;;;;;;-1.14;100.00;95036.31;5005257;28;20042;-72
2022/12/04 02:20:27;;;;;;;54.00;15.77;;;;;;;-1.15;100.00;95024.38;5011512;28;20113;-72
2022/12/04 02:23:08;;;;;;;35.90;12.10;;;;;;;-1.19;100.00;95018.06;5005154;28;20516;-72
2022/12/04 02:25:45;;;;;;;43.90;13.13;;;;;;;-1.20;100.00;95013.91;5008764;28;20100;-71
2022/12/04 02:28:26;;;;;;;44.10;14.45;;;;;;;-1.23;100.00;95013.31;5001940;28;20508;-71
2022/12/04 02:30:56;;;;;;;46.85;13.77;;;;;;;-1.23;100.00;95023.63;5008266;28;20050;-71
2022/12/04 02:33:28;;;;;;;42.65;13.63;;;;;;;-1.20;100.00;95008.75;5007100;28;20046;-71
2022/12/04 02:36:09;;;;;;;41.58;12.68;;;;;;;-1.17;100.00;95009.09;4999906;28;20763;-71
2022/12/04 02:38:39;;;;;;;44.28;12.52;;;;;;;-1.20;100.00;95006.16;4995338;28;20049;-71
2022/12/04 02:41:17;;;;;;;50.50;14.10;;;;;;;-1.29;100.00;94998.66;5004341;28;20042;-71
2022/12/04 02:43:47;;;;;;;46.42;13.93;;;;;;;-1.24;100.00;94996.22;4999390;28;20397;-71
2022/12/04 02:46:22;;;;;;;44.03;13.77;;;;;;;-1.23;100.00;95002.19;4992719;28;20042;-71
2022/12/04 02:48:50;;;;;;;48.22;13.77;;;;;;;-1.24;100.00;95006.56;5002186;28;20455;-71
2022/12/04 02:51:20;;;;;;;59.78;14.80;;;;;;;-1.22;100.00;94994.25;5006382;28;20050;-71
2022/12/04 02:53:58;;;;;;;49.15;14.75;;;;;;;-1.25;100.00;94999.00;5004860;28;20408;-71
2022/12/04 02:56:31;;;;;;;46.72;13.55;;;;;;;-1.23;100.00;95002.97;5004528;28;20093;-71
2022/12/04 02:59:08;;;;;;;45.30;13.18;;;;;;;-1.23;100.00;94986.72;5004596;28;20037;-71
2022/12/04 03:01:38;;;;;;;55.60;14.38;;;;;;;-1.31;100.00;94985.16;4998998;28;20118;-71
2022/12/04 03:04:12;;;;;;;49.83;14.65;;;;;;;-1.22;100.00;94999.41;5009366;28;20396;-71
2022/12/04 03:06:40;;;;;;;55.13;15.00;;;;;;;-1.36;100.00;94997.91;5008133;28;20167;-71
2022/12/04 03:09:13;;;;;;;47.10;14.80;;;;;;;-1.33;100.00;94987.16;5004410;28;20090;-71
2022/12/04 03:11:45;;;;;;;54.92;15.20;;;;;;;-1.32;100.00;94993.09;5011440;28;20483;-71
2022/12/04 03:14:17;;;;;;;51.67;14.15;;;;;;;-1.25;100.00;94988.69;5002889;28;20046;-71
2022/12/04 03:16:43;;;;;;;51.78;15.30;;;;;;;-1.36;100.00;94992.75;5010532;28;20111;-71
2022/12/04 03:19:14;;;;;;;56.50;14.77;;;;;;;-1.29;100.00;94987.53;4996676;28;20042;-71
2022/12/04 03:21:45;;;;;;;57.03;14.57;;;;;;;-1.36;100.00;94990.16;5006003;28;20121;-71
2022/12/04 03:24:37;;;;;;;44.70;13.98;;;;;;;-1.33;100.00;94984.56;5001732;28;20101;-71
2022/12/04 03:27:15;;;;;;;48.03;14.25;;;;;;;-1.28;100.00;94983.94;4992966;28;20054;-71
2022/12/04 03:30:05;;;;;;;52.92;14.07;;;;;;;-1.34;100.00;94985.56;5002617;28;20038;-71
2022/12/04 03:32:51;;;;;;;44.97;13.38;;;;;;;-1.30;100.00;94991.91;4994023;28;20451;-71
2022/12/04 03:35:43;;;;;;;54.28;15.20;;;;;;;-1.31;100.00;95000.63;5007785;28;20050;-71
2022/12/04 03:38:09;;;;;;;53.67;14.40;;;;;;;-1.35;100.00;94989.16;5004736;28;20142;-71
2022/12/04 03:40:43;;;;;;;42.80;14.05;;;;;;;-1.29;100.00;94993.50;5000890;28;20048;-71
2022/12/04 03:43:15;;;;;;;;;;;;;;;-1.29;100.00;94988.31;5003274;28;20061;-71
2022/12/04 03:45:46;;;;;;;50.05;15.00;;;;;;;-1.36;100.00;94987.56;5002451;28;19979;-71
2022/12/04 03:48:22;;;;;;;60.78;14.30;;;;;;;-1.26;100.00;94972.41;5000097;28;20088;-71
2022/12/04 03:50:58;;;;;;;59.28;15.07;;;;;;;-1.24;100.00;94980.75;5002975;28;20113;-71
2022/12/04 03:53:43;;;;;;;58.60;15.00;;;;;;;-1.28;100.00;94974.44;5006490;28;20049;-71
2022/12/04 03:56:15;;;;;;;44.22;14.55;;;;;;;-1.37;100.00;94978.25;4993888;28;20070;-70
2022/12/04 03:58:48;;;;;;;47.53;14.18;;;;;;;-1.32;100.00;94973.25;5006202;28;20599;-71
2022/12/04 04:01:19;;;;;;;61.90;15.68;;;;;;;-1.23;100.00;94966.06;4998583;28;20096;-71
2022/12/04 04:03:49;;;;;;;51.05;14.70;;;;;;;-1.31;100.00;94961.91;4996328;28;20050;-71
2022/12/04 04:06:35;;;;;;;58.13;15.07;;;;;;;-1.25;100.00;94958.53;4999021;28;20046;-73
2022/12/04 04:09:08;;;;;;;49.85;14.98;;;;;;;-1.29;100.00;94962.50;5000007;28;20042;-71
2022/12/04 04:11:41;;;;;;;51.47;15.73;;;;;;;-1.36;100.00;94961.75;4997907;28;20046;-71
2022/12/04 04:25:51;;;;;;;42.45;13.82;;;;;;;-1.28;100.00;94969.25;4998567;28;20042;-71
2022/12/04 04:28:27;;;;;;;49.72;15.00;;;;;;;-1.24;100.00;94965.25;5002891;28;20049;-71
2022/12/04 04:30:55;;;;;;;56.90;15.77;;;;;;;-1.13;100.00;94960.44;5005344;28;20105;-71
2022/12/04 04:33:21;;;;;;;52.80;15.40;;;;;;;-1.17;100.00;94959.28;4999266;28;20046;-71
2022/12/04 04:35:54;;;;;;;54.92;15.05;;;;;;;-1.31;100.00;94964.50;5005963;28;20550;-71
2022/12/04 04:38:26;;;;;;;54.17;16.20;;;;;;;-1.37;100.00;94960.16;5009285;28;20129;-71
2022/12/04 04:41:10;;;;;;;50.75;14.65;;;;;;;-1.27;100.00;94957.91;4999630;28;20045;-71
2022/12/04 04:44:05;;;;;;;48.65;14.10;;;;;;;-1.22;100.00;94958.09;5000695;28;20492;-71
2022/12/04 04:46:38;;;;;;;48.13;13.60;;;;;;;-1.25;100.00;94952.53;5004401;28;20117;-71
2022/12/04 04:49:07;;;;;;;53.85;15.40;;;;;;;-1.19;100.00;94961.25;5001180;28;20053;-71
2022/12/04 04:51:34;;;;;;;50.47;14.45;;;;;;;-1.18;100.00;94957.69;5008158;28;20050;-71
2022/12/04 04:54:03;;;;;;;52.45;15.80;;;;;;;-1.18;100.00;94955.09;5005310;28;20054;-70
2022/12/04 04:56:29;;;;;;;44.75;13.27;;;;;;;-1.32;100.00;94955.19;4999787;28;20484;-71
2022/12/04 04:58:55;;;;;;;49.95;14.60;;;;;;;-1.24;100.00;94954.91;5003741;28;20042;-71
2022/12/04 05:01:25;;;;;;;43.92;13.93;;;;;;;-1.23;100.00;94966.06;5009837;28;20504;-71
2022/12/04 05:03:51;;;;;;;48.08;14.93;;;;;;;-1.22;100.00;94963.25;4995525;28;20093;-71
2022/12/04 05:06:17;;;;;;;56.35;14.55;;;;;;;-1.28;100.00;94964.09;5012593;28;20552;-71
2022/12/04 05:08:43;;;;;;;47.17;14.45;;;;;;;-1.20;100.00;94960.47;5010001;28;20038;-71
2022/12/04 05:11:13;;;;;;;55.40;15.50;;;;;;;-1.18;100.00;94960.25;5006006;28;20058;-71
2022/12/04 05:13:39;;;;;;;48.42;14.43;;;;;;;-1.20;100.00;94950.13;5004161;28;20120;-71
2022/12/04 05:16:07;;;;;;;47.65;15.15;;;;;;;-1.28;100.00;94958.94;5010913;28;20090;-71
2022/12/04 05:18:34;;;;;;;50.97;15.05;;;;;;;-1.18;100.00;94957.69;5009186;28;20062;-71
2022/12/04 05:21:17;;;;;;;50.00;15.18;;;;;;;-1.18;100.00;94947.34;5009326;28;20041;-70
2022/12/04 05:23:43;;;;;;;57.10;16.13;;;;;;;-1.23;100.00;94946.19;5010405;28;20046;-71
2022/12/04 05:26:09;;;;;;;56.20;13.98;;;;;;;-1.20;100.00;94946.78;5004261;28;20046;-71
2022/12/04 05:28:34;;;;;;;50.35;14.85;;;;;;;-1.13;100.00;94945.72;5005469;28;20448;-71
2022/12/04 05:31:02;;;;;;;54.63;15.60;;;;;;;-1.18;100.00;94955.09;5010037;28;20044;-71
2022/12/04 05:33:29;;;;;;;45.10;13.68;;;;;;;-1.17;100.00;94948.94;5011535;28;20515;-71
2022/12/04 05:36:00;;;;;;;42.92;13.88;;;;;;;-1.13;100.00;94950.88;5018045;28;20065;-71
2022/12/04 05:38:26;;;;;;;56.88;14.93;;;;;;;-1.13;100.00;94956.06;5006476;28;20049;-71
2022/12/04 05:40:51;;;;;;;43.70;13.07;;;;;;;-1.16;100.00;94955.69;5008179;28;20038;-71
2022/12/04 05:43:17;;;;;;;43.42;13.73;;;;;;;-1.17;100.00;94965.22;5005331;28;20095;-71
2022/12/04 05:45:43;;;;;;;49.80;14.10;;;;;;;-1.11;100.00;94968.75;5001923;28;20500;-71
2022/12/04 05:48:09;;;;;;;57.92;15.70;;;;;;;-1.11;100.00;94964.38;5008437;28;20046;-71
2022/12/04 05:50:34;;;;;;;52.65;15.57;;;;;;;-1.09;100.00;94966.78;5001925;28;20467;-71
2022/12/04 05:53:00;;;;;;;56.60;16.25;;;;;;;-1.05;100.00;94952.41;5006136;28;20472;-71
2022/12/04 05:55:25;;;;;;;48.15;15.65;;;;;;;-1.11;100.00;94953.25;4997745;28;20038;-71
2022/12/04 05:57:51;;;;;;;50.47;15.55;;;;;;;-1.02;100.00;94944.28;5000986;28;20038;-70
2022/12/04 06:00:17;;;;;;;56.83;15.85;;;;;;;-1.14;100.00;94944.13;5009832;28;20049;-71
2022/12/04 06:02:42;;;;;;;53.22;14.48;;;;;;;-1.09;100.00;94946.09;5009545;28;20049;-71
2022/12/04 06:05:08;;;;;;;46.75;14.63;;;;;;;-1.07;100.00;94949.25;5005727;28;20045;-71
2022/12/04 06:07:34;;;;;;;49.35;14.63;;;;;;;-1.11;100.00;94930.03;5003434;28;20046;-70
2022/12/04 06:09:59;;;;;;;47.88;14.52;;;;;;;-1.11;100.00;94932.59;5010366;28;20084;-71
2022/12/04 06:12:25;;;;;;;51.90;14.18;;;;;;;-1.00;100.00;94934.50;5001176;28;20074;-70
2022/12/04 06:14:51;;;;;;;53.15;15.00;;;;;;;-1.12;100.00;94936.19;5003125;28;20499;-71
2022/12/04 06:17:16;;;;;;;53.63;15.77;;;;;;;-1.10;100.00;94944.53;5006494;28;20038;-71
2022/12/04 06:19:42;;;;;;;54.00;15.82;;;;;;;-1.08;100.00;94942.50;5009363;28;20041;-71
2022/12/04 06:22:07;;;;;;;56.35;14.75;;;;;;;-1.03;100.00;94949.63;4996535;28;20511;-71
2022/12/04 06:24:33;;;;;;;52.28;14.80;;;;;;;-1.09;100.00;94956.44;5010596;28;20046;-71
2022/12/04 06:26:59;;;;;;;59.22;16.25;;;;;;;-0.99;100.00;94956.75;5003739;28;20046;-71
2022/12/04 06:29:25;;;;;;;62.88;16.27;;;;;;;-1.00;100.00;94960.34;5016953;28;20563;-71
2022/12/04 06:31:50;;;;;;;52.80;15.65;;;;;;;-1.06;100.00;94951.63;5010659;28;20042;-70
2022/12/04 06:34:16;;;;;;;60.50;16.75;;;;;;;-1.02;100.00;94949.44;4996806;28;20042;-70
2022/12/04 06:36:42;;;;;;;67.70;16.15;;;;;;;-1.04;100.00;94941.09;5010558;28;20041;-70
2022/12/04 06:39:08;;;;;;;54.95;16.20;;;;;;;-1.11;100.00;94942.94;5010543;28;20107;-70
2022/12/04 06:41:34;;;;;;;71.03;16.45;;;;;;;-1.13;100.00;94955.28;5003391;28;20046;-70
2022/12/04 06:43:59;;;;;;;56.45;16.10;;;;;;;-1.07;100.00;94959.59;4993805;28;20108;-71
2022/12/04 06:46:27;;;;;;;64.03;15.35;;;;;;;-1.11;100.00;94950.69;5007863;28;20092;-71
2022/12/04 06:48:55;;;;;;;56.63;15.80;;;;;;;-1.07;100.00;94949.25;5006752;28;20042;-71
2022/12/04 06:51:39;;;;;;;74.63;17.77;;;;;;;-1.05;100.00;94948.06;5002367;28;20042;-70
2022/12/04 06:54:05;;;;;;;63.13;15.75;;;;;;;-0.99;100.00;94941.25;5004011;28;20064;-70
2022/12/04 06:56:32;;;;;;;64.30;15.35;;;;;;;-1.05;100.00;94931.75;5009470;28;20492;-70
2022/12/04 06:59:00;;;;;;;50.10;14.80;;;;;;;-1.00;100.00;94939.66;5010002;28;20435;-70
2022/12/04 07:01:28;;;;;;;55.28;15.40;;;;;;;-0.99;100.00;94956.75;5007677;28;20108;-71
2022/12/04 07:03:55;;;;;;;53.67;14.30;;;;;;;-1.01;100.00;94945.84;5002587;28;20506;-70
2022/12/04 07:06:20;;;;;;;58.63;16.13;;;;;;;-1.08;100.00;94963.16;5000126;28;20126;-71
2022/12/04 07:08:49;;;;;;;67.82;17.02;;;;;;;-1.13;100.00;94963.03;5008766;28;20065;-71
2022/12/04 07:11:15;;;;;;;53.55;15.82;;;;;;;-1.08;100.00;94963.16;5002509;28;20492;-71
2022/12/04 07:13:41;;;;;;;66.13;16.67;;;;;;;-1.13;100.00;94950.88;4998312;28;20038;-70
2022/12/04 07:16:09;;;;;;;61.10;17.00;;;;;;;-1.03;100.00;94950.44;5004499;28;20373;-72
2022/12/04 07:18:36;;;;;;;60.60;16.25;;;;;;;-1.06;100.00;94950.84;5003836;28;20041;-71
2022/12/04 07:21:05;;;;;;;67.47;16.75;;;;;;;-1.17;100.00;94949.72;5002865;28;20038;-71
2022/12/04 07:23:31;;;;;;;61.17;15.90;;;;;;;-1.04;100.00;94959.16;5002418;28;20050;-70
2022/12/04 07:25:57;;;;;;;53.72;15.20;;;;;;;-1.14;100.00;94969.19;5004314;28;20049;-70
2022/12/04 07:28:23;;;;;;;52.83;15.98;;;;;;;-1.12;100.00;94972.31;4999672;28;20045;-71
2022/12/04 07:30:48;;;;;;;56.75;15.23;;;;;;;-1.17;100.00;94959.28;5007452;28;20058;-71
2022/12/04 07:33:14;;;;;;;42.55;14.27;;;;;;;-1.10;100.00;94965.19;4995325;28;20046;-71
2022/12/04 07:35:39;;;;;;;58.25;16.25;;;;;;;-1.06;100.00;94971.50;5010464;28;20030;-71
2022/12/04 07:38:05;;;;;;;44.95;15.35;;;;;;;-0.97;100.00;94975.41;5010033;28;20076;-72
2022/12/04 07:40:30;;;;;;;54.78;14.48;;;;;;;-1.00;100.00;94981.00;5007375;28;20103;-71
2022/12/04 07:42:56;;;;;;;52.13;14.90;;;;;;;-1.01;100.00;94969.06;5010621;28;20068;-71
2022/12/04 07:45:21;;;;;;;49.28;14.98;;;;;;;-1.00;100.00;94944.84;5007934;28;20526;-71
2022/12/04 07:47:47;;;;;;;45.85;15.52;;;;;;;-1.10;100.00;94960.00;5006264;28;20047;-71
2022/12/04 07:50:13;;;;;;;52.30;13.57;;;;;;;-1.11;100.00;94958.41;5004944;28;20041;-72
2022/12/04 07:52:39;;;;;;;46.90;14.68;;;;;;;-1.15;100.00;94962.41;4999330;28;20049;-71
2022/12/04 07:55:05;;;;;;;50.28;14.65;;;;;;;-1.09;100.00;94977.09;4995099;28;20042;-71
2022/12/04 07:57:32;;;;;;;60.10;14.82;;;;;;;-1.10;100.00;94975.50;5005663;28;20042;-71
2022/12/04 07:59:57;;;;;;;55.97;15.10;;;;;;;-1.07;100.00;94975.09;5004092;28;20046;-71
2022/12/04 08:02:23;;;;;;;46.20;14.75;;;;;;;-1.02;100.00;94952.03;5007047;28;20104;-71
2022/12/04 08:04:49;;;;;;;56.30;16.40;;;;;;;-1.04;100.00;94964.34;4992343;28;20045;-71
2022/12/04 08:07:15;;;;;;;52.53;13.52;;;;;;;-1.04;100.00;94969.50;4998691;28;20492;-71
2022/12/04 08:09:40;;;;;;;57.50;15.55;;;;;;;-0.98;100.00;94948.00;5001562;28;20487;-71
2022/12/04 08:12:06;;;;;;;67.40;17.58;;;;;;;-0.99;100.00;94964.50;5001369;28;20057;-71
2022/12/04 08:14:31;;;;;;;49.40;15.57;;;;;;;-0.97;100.00;94962.50;5007073;28;20042;-69
2022/12/04 08:16:57;;;;;;;50.90;14.75;;;;;;;-1.00;100.00;94960.34;5003795;28;20504;-69
2022/12/04 08:19:23;;;;;;;55.67;14.45;;;;;;;-0.94;100.00;94969.81;5004666;28;20046;-69
2022/12/04 08:21:48;;;;;;;55.28;15.13;;;;;;;-1.00;100.00;94960.34;5005546;28;20034;-70
2022/12/04 08:24:14;;;;;;;52.70;14.85;;;;;;;-1.01;100.00;94966.50;5002588;28;20492;-70
2022/12/04 08:26:40;;;;;;;55.00;15.30;;;;;;;-0.95;100.00;94951.94;5001764;28;20048;-69
2022/12/04 08:29:05;;;;;;;57.72;14.85;;;;;;;-0.88;100.00;94963.84;5010731;28;20042;-68
2022/12/04 08:31:33;;;;;;;68.72;15.52;;;;;;;-0.93;100.00;94975.78;5008325;28;20603;-68
2022/12/04 08:34:01;;;;;;;52.53;14.52;;;;;;;-0.85;100.00;94965.19;5010120;28;20077;-68
2022/12/04 08:36:27;;;;;;;54.85;16.10;;;;;;;-0.97;100.00;94965.06;5006439;28;20088;-69
2022/12/04 08:38:54;;;;;;;55.88;14.85;;;;;;;-0.84;100.00;94978.91;5010505;28;20041;-70
2022/12/04 08:41:22;;;;;;;47.90;13.73;;;;;;;-0.89;100.00;94976.94;5010878;28;20041;-70
2022/12/04 08:43:48;;;;;;;64.38;14.27;;;;;;;-0.85;100.00;94977.31;5001238;28;20041;-70
2022/12/04 08:46:14;;;;;;;51.65;15.93;;;;;;;-0.92;100.00;94978.16;5003195;28;20671;-70
2022/12/04 08:48:40;;;;;;;42.63;14.00;;;;;;;-0.95;100.00;94978.59;5003536;28;20046;-70
2022/12/04 08:51:11;;;;;;;53.00;13.82;;;;;;;-0.82;100.00;94966.56;4994180;28;20046;-70
2022/12/04 08:53:36;;;;;;;59.75;15.30;;;;;;;-0.82;100.00;94966.56;5008445;28;20546;-69
2022/12/04 08:56:03;;;;;;;55.60;15.73;;;;;;;-0.85;100.00;94964.41;5006464;28;20049;-70
2022/12/04 08:58:28;;;;;;;55.95;14.80;;;;;;;-0.72;100.00;94972.03;5000652;28;20043;-69
2022/12/04 09:00:54;;;;;;;60.30;15.80;;;;;;;-0.67;100.00;94974.78;4994564;28;20053;-69
2022/12/04 09:03:21;;;;;;;55.75;14.65;;;;;;;-0.68;100.00;94970.63;5002531;28;20045;-68
2022/12/04 09:05:47;;;;;;;62.78;15.82;;;;;;;-0.76;100.00;94970.88;4998017;28;20042;-69
2022/12/04 09:08:14;;;;;;;58.08;16.40;;;;;;;-0.60;100.00;94975.53;5003417;28;20042;-68
2022/12/04 09:10:41;;;;;;;62.95;16.13;;;;;;;-0.51;100.00;94967.50;5006871;28;20041;-69
2022/12/04 09:13:07;;;;;;;52.58;15.48;;;;;;;-0.50;100.00;94984.56;5007113;28;20045;-69
2022/12/04 09:15:33;;;;;;;55.50;16.50;;;;;;;-0.45;100.00;94992.50;4999645;28;20411;-70
2022/12/04 09:17:58;;;;;;;58.80;16.15;;;;;;;-0.42;100.00;94992.06;5002101;28;20038;-71
2022/12/04 09:20:24;;;;;;;58.88;16.25;;;;;;;-0.44;100.00;94994.09;5001327;28;20037;-70
2022/12/04 09:22:50;;;;;;;60.40;16.67;;;;;;;-0.43;100.00;95006.00;5003580;28;20038;-70
2022/12/04 09:25:16;;;;;;;53.35;16.55;;;;;;;-0.31;100.00;94983.63;5006822;28;20047;-70
2022/12/04 09:27:42;;;;;;;62.08;17.23;;;;;;;-0.37;100.00;94977.50;5009504;28;20046;-70
2022/12/04 09:30:11;;;;;;;54.90;16.15;;;;;;;-0.43;100.00;94985.31;5006336;28;20108;-70
2022/12/04 09:32:38;;;;;;;66.35;16.75;;;;;;;-0.29;100.00;94954.97;5006150;28;20488;-70
2022/12/04 09:35:08;;;;;;;57.10;17.05;;;;;;;-0.27;100.00;94938.22;5028954;28;20057;-69
2022/12/04 09:37:35;;;;;;;55.00;16.70;;;;;;;-0.30;100.00;94943.84;5028482;28;20065;-69
2022/12/04 09:40:03;;;;;;;53.40;15.50;;;;;;;-0.23;100.00;94939.38;5028819;28;20057;-67
2022/12/04 09:42:41;;;;;;;47.42;14.52;;;;;;;-0.22;100.00;94940.94;5034442;28;20033;-67
2022/12/04 09:45:20;;;;;;;51.30;15.50;;;;;;;-0.25;100.00;94935.44;5027596;28;20044;-68
2022/12/04 09:47:50;;;;;;;48.08;14.60;;;;;;;-0.16;100.00;94928.16;5035505;28;20038;-67
2022/12/04 09:50:22;;;;;;;48.25;15.85;;;;;;;-0.13;100.00;94943.25;5039907;28;20030;-68
2022/12/04 09:53:33;;;;;;;40.67;12.55;;;;;;;-0.28;100.00;94957.31;5035397;28;20042;-68
2022/12/04 09:55:59;;;;;;;36.05;12.88;;;;;;;-0.34;100.00;94955.59;5008241;28;20054;-71
2022/12/04 09:58:31;;;;;;;37.15;12.00;;;;;;;-0.22;100.00;94956.47;5006764;28;20042;-71
2022/12/04 10:00:59;;;;;;;48.72;15.38;;;;;;;-0.15;100.00;94960.78;5005564;28;20042;-74
2022/12/04 10:03:28;;;;;;;50.05;14.45;;;;;;;-0.16;100.00;94941.09;5010082;28;20049;-71
2022/12/04 10:06:15;;;;;;;52.35;17.48;;;;;;;-0.13;100.00;94922.56;5000133;28;20052;-70
2022/12/04 10:08:44;;;;;;;57.80;17.23;;;;;;;-0.13;100.00;94913.03;5010315;28;20065;-69
2022/12/04 10:11:31;;;;;;;56.45;17.52;;;;;;;0.03;100.00;94901.28;5002169;28;20042;-69
2022/12/04 10:14:25;;;;;;;53.80;14.75;;;;;;;0.15;100.00;94896.94;5003746;28;20040;-69
2022/12/04 10:17:24;;;;;;;45.25;15.38;;;;;;;0.19;100.00;94893.91;5000605;28;20488;-69
2022/12/04 10:20:01;;;;;;;44.53;15.05;;;;;;;0.13;100.00;94891.22;4964715;28;20062;-69
2022/12/04 10:22:40;;;;;;;44.95;15.02;;;;;;;0.21;100.00;94897.88;5005158;28;20053;-69
2022/12/04 10:25:23;;;;;;;53.58;15.82;;;;;;;0.16;100.00;94924.41;5010884;28;20306;-70
2022/12/04 10:28:05;;;;;;;46.90;16.20;;;;;;;0.15;100.00;94915.06;5001370;28;20042;-69
2022/12/04 10:30:35;;;;;;;43.05;14.02;;;;;;;0.03;100.00;94901.28;5005419;28;20037;-69
2022/12/04 10:33:15;;;;;;;46.25;14.88;;;;;;;0.16;100.00;94882.22;5007063;28;20041;-70
2022/12/04 10:35:44;;;;;;;43.22;14.95;;;;;;;0.11;100.00;94882.88;5009105;28;20049;-72
2022/12/04 10:38:22;;;;;;;43.10;14.82;;;;;;;0.17;100.00;94876.03;5004812;28;20518;-70
2022/12/04 10:40:54;;;;;;;44.30;14.55;;;;;;;0.24;100.00;94866.38;5003078;28;20191;-70
2022/12/04 10:43:42;;;;;;;43.80;14.68;;;;;;;0.23;100.00;94864.00;5009332;28;20046;-71
2022/12/04 10:46:13;;;;;;;40.60;14.10;;;;;;;0.24;100.00;94875.94;5011777;28;20434;-71
2022/12/04 10:48:40;;;;;;;34.08;11.35;;;;;;;0.01;100.00;94861.91;5004953;28;20185;-71
2022/12/04 10:51:13;;;;;;;40.58;13.35;;;;;;;0.04;100.00;94852.91;5009131;28;20107;-71
2022/12/04 10:53:38;;;;;;;41.30;14.18;;;;;;;0.22;100.00;94857.28;5012067;28;20042;-71
2022/12/04 10:56:18;;;;;;;40.40;14.20;;;;;;;0.23;100.00;94851.88;5006667;28;20042;-71
2022/12/04 10:58:59;;;;;;;54.25;16.40;;;;;;;0.13;100.00;94860.16;5002193;28;20053;-71
2022/12/04 11:01:26;;;;;;;45.80;15.43;;;;;;;0.25;100.00;94851.66;5003818;28;20046;-71
2022/12/04 11:04:06;;;;;;;44.45;15.50;;;;;;;0.20;100.00;94843.75;4998448;28;20480;-70
2022/12/04 11:06:34;;;;;;;41.63;14.20;;;;;;;0.36;100.00;94844.91;5003310;28;20419;-70
2022/12/04 11:09:02;;;;;;;49.05;14.90;;;;;;;0.28;100.00;94846.81;5007024;28;20046;-69
2022/12/04 11:11:31;;;;;;;41.67;15.50;;;;;;;0.34;100.00;94863.25;5009338;28;20037;-71
2022/12/04 11:14:06;;;;;;;44.28;16.55;;;;;;;0.22;100.00;94858.06;5002245;28;20042;-72
2022/12/04 11:16:36;;;;;;;47.90;16.77;;;;;;;0.20;100.00;94841.16;5008429;28;20050;-69
2022/12/04 11:19:01;;;;;;;54.38;17.42;;;;;;;0.31;100.00;94866.28;5005395;28;20049;-70
2022/12/04 11:21:29;;;;;;;47.95;16.58;;;;;;;0.30;100.00;94870.69;5009164;28;20475;-70
2022/12/04 11:23:55;;;;;;;51.40;17.45;;;;;;;0.25;100.00;94883.50;5002407;28;20038;-70
2022/12/04 11:26:41;;;;;;;52.67;17.10;;;;;;;0.52;100.00;94894.28;4998848;28;20069;-69
2022/12/04 11:29:13;;;;;;;60.03;17.33;;;;;;;0.46;100.00;94874.44;5006008;28;20045;-70
2022/12/04 11:31:39;;;;;;;49.10;16.83;;;;;;;0.43;100.00;94880.06;5000539;28;20128;-70
2022/12/04 11:34:14;;;;;;;61.53;17.38;;;;;;;0.24;100.00;94866.38;5004704;28;20045;-69